createdAt,value
2023-04-05T00:00:54.307Z,56.34
2023-04-05T00:03:22.187Z,56.04
2023-04-05T00:05:50.542Z,57.12
2023-04-05T00:08:26.560Z,55.04
2023-04-05T00:10:54.600Z,53.70
2023-04-05T00:13:22.696Z,53.33
2023-04-05T00:15:50.957Z,53.49
2023-04-05T00:18:23.818Z,53.77
2023-04-05T00:20:52.249Z,53.26
2023-04-05T00:23:21.273Z,54.39
2023-04-05T00:25:49.289Z,55.62
2023-04-05T00:28:16.818Z,54.54
2023-04-05T00:30:44.395Z,54.04
2023-04-05T00:33:13.124Z,54.49
2023-04-05T00:35:42.030Z,54.96
2023-04-05T00:38:09.680Z,55.88
2023-04-05T00:40:37.360Z,55.00
2023-04-05T00:43:04.978Z,54.52
2023-04-05T00:45:32.873Z,54.67
2023-04-05T00:48:01.360Z,54.70
2023-04-05T00:50:30.881Z,54.26
2023-04-05T00:52:59.968Z,54.06
2023-04-05T00:55:29.198Z,54.01
2023-04-05T00:57:56.894Z,53.89
2023-04-05T01:00:24.547Z,54.46
2023-04-05T01:02:57.787Z,54.13
2023-04-05T01:05:36.016Z,56.71
2023-04-05T01:08:14.160Z,55.92
2023-04-05T01:10:47.623Z,58.55
2023-04-05T01:13:17.363Z,56.15
2023-04-05T01:15:44.918Z,55.62
2023-04-05T01:18:12.634Z,55.73
2023-04-05T01:20:46.944Z,56.36
2023-04-05T01:23:44.431Z,55.99
2023-04-05T01:26:45.458Z,56.80
2023-04-05T01:29:44.163Z,55.83
2023-04-05T01:32:19.282Z,58.41
2023-04-05T01:34:52.912Z,56.25
2023-04-05T01:37:23.736Z,56.46
2023-04-05T01:39:52.066Z,56.16
2023-04-05T01:42:25.568Z,55.95
2023-04-05T01:44:55.466Z,56.16
2023-04-05T01:47:23.172Z,55.95
2023-04-05T01:49:50.908Z,55.92
2023-04-05T01:52:18.444Z,55.13
2023-04-05T01:54:46.108Z,56.25
2023-04-05T01:57:13.647Z,56.36
2023-04-05T01:59:41.199Z,56.63
2023-04-05T02:02:10.098Z,55.14
2023-04-05T02:04:37.804Z,57.00
2023-04-05T02:07:05.380Z,56.18
2023-04-05T02:09:32.910Z,55.10
2023-04-05T02:12:01.350Z,54.46
2023-04-05T02:14:28.913Z,54.53
2023-04-05T02:16:56.680Z,56.17
2023-04-05T02:19:26.049Z,58.02
2023-04-05T02:21:54.693Z,56.05
2023-04-05T02:24:22.759Z,55.57
2023-04-05T02:26:51.202Z,55.29
2023-04-05T02:29:18.763Z,55.57
2023-04-05T02:31:46.344Z,56.21
2023-04-05T02:34:14.412Z,55.90
2023-04-05T02:36:44.162Z,55.65
2023-04-05T02:39:11.929Z,55.67
2023-04-05T02:41:39.562Z,55.66
2023-04-05T02:44:07.110Z,55.26
2023-04-05T02:46:34.678Z,55.29
2023-04-05T02:49:02.274Z,56.03
2023-04-05T02:51:29.842Z,56.19
2023-04-05T02:53:58.796Z,56.17
2023-04-05T02:56:26.332Z,56.20
2023-04-05T02:58:54.012Z,56.04
2023-04-05T03:01:22.635Z,55.88
2023-04-05T03:03:50.955Z,56.13
2023-04-05T03:06:20.695Z,57.87
2023-04-05T03:08:49.359Z,57.02
2023-04-05T03:11:18.390Z,59.35
2023-04-05T03:13:46.067Z,59.53
2023-04-05T03:16:13.635Z,57.70
2023-04-05T03:18:41.190Z,58.83
2023-04-05T03:21:12.616Z,59.00
2023-04-05T03:23:40.277Z,57.78
2023-04-05T03:26:07.849Z,57.44
2023-04-05T03:28:36.733Z,56.61
2023-04-05T03:31:04.305Z,56.14
2023-04-05T03:33:31.850Z,55.77
2023-04-05T03:36:00.592Z,56.13
2023-04-05T03:38:28.542Z,55.36
2023-04-05T03:40:56.085Z,55.44
2023-04-05T03:43:23.605Z,55.46
2023-04-05T03:45:52.675Z,55.19
2023-04-05T03:48:21.667Z,55.35
2023-04-05T03:50:49.199Z,55.64
2023-04-05T03:53:19.155Z,55.50
2023-04-05T03:55:49.557Z,57.08
2023-04-05T03:58:17.354Z,58.64
2023-04-05T04:00:44.901Z,57.68
2023-04-05T04:03:14.028Z,57.19
2023-04-05T04:05:42.041Z,57.17
2023-04-05T04:08:10.279Z,57.41
2023-04-05T04:10:37.951Z,58.89
2023-04-05T04:13:05.501Z,59.02
2023-04-05T04:15:33.061Z,58.75
2023-04-05T04:18:00.662Z,57.94
2023-04-05T04:20:29.763Z,59.57
2023-04-05T04:22:58.638Z,59.43
2023-04-05T04:25:26.514Z,57.86
2023-04-05T04:27:54.227Z,57.07
2023-04-05T04:30:22.774Z,57.18
2023-04-05T04:32:54.768Z,57.39
2023-04-05T04:35:24.845Z,57.28
2023-04-05T04:37:57.885Z,57.15
2023-04-05T04:40:26.777Z,56.80
2023-04-05T04:42:54.678Z,56.90
2023-04-05T04:45:22.267Z,57.03
2023-04-05T04:47:53.634Z,57.45
2023-04-05T04:50:22.082Z,57.72
2023-04-05T04:52:49.794Z,58.67
2023-04-05T04:55:18.726Z,57.67
2023-04-05T04:57:46.257Z,57.32
2023-04-05T05:00:16.569Z,57.18
2023-04-05T05:02:44.970Z,57.39
2023-04-05T05:05:12.625Z,57.61
2023-04-05T05:07:42.116Z,57.68
2023-04-05T05:10:11.357Z,57.72
2023-04-05T05:12:40.220Z,58.38
2023-04-05T05:15:09.037Z,58.83
2023-04-05T05:17:37.512Z,58.92
2023-04-05T05:20:10.610Z,59.01
2023-04-05T05:22:38.822Z,59.08
2023-04-05T05:25:08.702Z,58.77
2023-04-05T05:27:36.299Z,59.56
2023-04-05T05:30:06.190Z,59.46
2023-04-05T05:32:33.756Z,59.38
2023-04-05T05:35:01.357Z,59.85
2023-04-05T05:37:31.206Z,59.39
2023-04-05T05:39:58.910Z,58.92
2023-04-05T05:42:27.231Z,59.11
2023-04-05T05:44:54.825Z,59.45
2023-04-05T05:47:23.692Z,59.79
2023-04-05T05:49:51.163Z,61.35
2023-04-05T05:52:18.634Z,61.02
2023-04-05T05:54:47.159Z,59.60
2023-04-05T05:57:14.664Z,59.47
2023-04-05T05:59:42.256Z,59.11
2023-04-05T06:02:09.826Z,59.26
2023-04-05T06:04:38.892Z,61.29
2023-04-05T06:07:06.549Z,60.50
2023-04-05T06:09:35.238Z,60.02
2023-04-05T06:12:03.108Z,59.66
2023-04-05T06:14:31.175Z,59.38
2023-04-05T06:16:58.835Z,59.60
2023-04-05T06:19:26.371Z,59.55
2023-04-05T06:21:55.995Z,59.63
2023-04-05T06:24:23.579Z,59.42
2023-04-05T06:26:52.409Z,59.54
2023-04-05T06:29:19.943Z,59.27
2023-04-05T06:31:48.372Z,59.17
2023-04-05T06:34:16.101Z,59.24
2023-04-05T06:36:43.731Z,59.15
2023-04-05T06:39:12.590Z,59.21
2023-04-05T06:41:40.083Z,59.18
2023-04-05T06:44:07.607Z,59.00
2023-04-05T06:46:35.162Z,59.95
2023-04-05T06:49:04.134Z,61.36
2023-04-05T06:51:32.105Z,61.13
2023-04-05T06:53:59.654Z,61.46
2023-04-05T06:56:28.594Z,60.77
2023-04-05T06:58:58.071Z,61.49
2023-04-05T07:01:26.315Z,60.58
2023-04-05T07:03:54.558Z,58.68
2023-04-05T07:06:24.033Z,59.75
2023-04-05T07:08:52.573Z,57.95
2023-04-05T07:11:21.449Z,57.19
2023-04-05T07:13:50.333Z,56.17
2023-04-05T07:16:23.032Z,55.85
2023-04-05T07:18:51.130Z,55.96
2023-04-05T07:21:18.812Z,55.16
2023-04-05T07:23:46.419Z,57.20
2023-04-05T07:26:13.910Z,55.43
2023-04-05T07:28:41.425Z,54.41
2023-04-05T07:31:10.264Z,53.22
2023-04-05T07:33:37.795Z,54.92
2023-04-05T07:36:05.873Z,53.11
2023-04-05T07:38:33.384Z,52.59
2023-04-05T07:41:01.050Z,51.52
2023-04-05T07:43:28.623Z,50.12
2023-04-05T07:46:02.584Z,51.82
2023-04-05T07:48:32.075Z,49.15
2023-04-05T07:51:04.630Z,47.60
2023-04-05T07:53:32.241Z,47.34
2023-04-05T07:56:00.153Z,46.24
2023-04-05T07:58:30.439Z,46.93
2023-04-05T08:01:00.594Z,44.91
2023-04-05T08:03:28.310Z,46.04
2023-04-05T08:05:57.694Z,42.40
2023-04-05T08:08:26.036Z,38.75
2023-04-05T08:10:53.578Z,35.74
2023-04-05T08:13:21.083Z,31.84
2023-04-05T08:15:48.581Z,29.32
2023-04-05T08:18:16.083Z,28.72
2023-04-05T08:20:43.765Z,29.54
2023-04-05T08:23:12.805Z,26.30
2023-04-05T08:25:42.548Z,25.29
2023-04-05T08:28:10.296Z,25.68
2023-04-05T08:30:39.104Z,25.08
2023-04-05T08:33:07.288Z,24.63
2023-04-05T08:35:37.515Z,23.06
2023-04-05T08:38:05.055Z,23.91
2023-04-05T08:40:41.401Z,23.32
2023-04-05T08:43:13.971Z,23.31
2023-04-05T08:45:48.904Z,21.65
2023-04-05T08:48:17.137Z,21.08
2023-04-05T08:50:51.630Z,21.85
2023-04-05T08:53:19.381Z,20.82
2023-04-05T08:55:51.103Z,20.43
2023-04-05T08:58:21.951Z,19.40
2023-04-05T09:00:51.505Z,19.84
2023-04-05T09:03:23.635Z,19.75
2023-04-05T09:05:53.351Z,19.63
2023-04-05T09:08:22.179Z,20.22
2023-04-05T09:10:52.449Z,20.77
2023-04-05T09:13:20.622Z,23.06
2023-04-05T09:15:48.399Z,21.52
2023-04-05T09:18:26.362Z,21.33
2023-04-05T09:20:57.962Z,22.74
2023-04-05T09:23:25.715Z,20.26
2023-04-05T09:25:54.554Z,20.13
2023-04-05T09:28:22.068Z,20.87
2023-04-05T09:30:49.837Z,21.54
2023-04-05T09:33:21.161Z,21.09
2023-04-05T09:35:51.533Z,21.41
2023-04-05T09:38:19.149Z,21.97
2023-04-05T09:40:47.973Z,22.26
2023-04-05T09:43:38.638Z,24.38
2023-04-05T09:46:06.590Z,23.45
2023-04-05T09:48:47.725Z,22.91
2023-04-05T09:51:16.065Z,23.94
2023-04-05T09:53:58.191Z,24.07
2023-04-05T09:56:26.001Z,25.28
2023-04-05T09:58:59.549Z,24.42
2023-04-05T10:01:28.751Z,24.77
2023-04-05T10:03:58.549Z,23.22
2023-04-05T10:06:36.145Z,22.31
2023-04-05T10:09:04.926Z,23.57
2023-04-05T10:11:33.985Z,23.69
2023-04-05T10:14:04.823Z,23.82
2023-04-05T10:16:35.452Z,24.76
2023-04-05T10:19:06.378Z,25.78
2023-04-05T10:21:41.510Z,28.96
2023-04-05T10:24:19.221Z,26.38
2023-04-05T10:26:53.024Z,25.07
2023-04-05T10:29:31.121Z,24.87
2023-04-05T10:32:04.923Z,24.26
2023-04-05T10:34:41.301Z,24.21
2023-04-05T10:37:13.696Z,24.65
2023-04-05T10:39:43.609Z,24.47
2023-04-05T10:42:16.873Z,24.12
2023-04-05T10:44:47.373Z,26.96
2023-04-05T10:47:17.216Z,26.53
2023-04-05T10:49:48.405Z,24.24
2023-04-05T10:52:17.349Z,23.65
2023-04-05T10:54:45.611Z,24.48
2023-04-05T10:57:14.156Z,24.07
2023-04-05T10:59:43.790Z,25.16
2023-04-05T11:02:13.356Z,24.94
2023-04-05T11:04:42.360Z,24.15
2023-04-05T11:07:15.307Z,25.72
2023-04-05T11:09:54.307Z,23.25
2023-04-05T11:12:41.964Z,23.02
2023-04-05T11:15:32.325Z,23.59
2023-04-05T11:18:09.408Z,23.78
2023-04-05T11:20:44.733Z,24.12
2023-04-05T11:23:13.922Z,25.08
2023-04-05T11:25:46.582Z,24.28
2023-04-05T11:28:24.671Z,23.05
2023-04-05T11:30:56.538Z,24.21
2023-04-05T11:33:57.684Z,25.39
2023-04-05T11:36:33.572Z,25.97
2023-04-05T11:39:26.605Z,24.29
2023-04-05T11:42:03.518Z,24.11
2023-04-05T11:44:40.214Z,24.42
2023-04-05T11:47:08.442Z,24.49
2023-04-05T11:49:38.180Z,24.45
2023-04-05T11:52:17.074Z,25.14
2023-04-05T11:54:49.239Z,24.45
2023-04-05T11:57:20.920Z,24.79
2023-04-05T11:59:51.543Z,24.97
2023-04-05T12:02:19.260Z,25.78
2023-04-05T12:04:55.076Z,25.35
2023-04-05T12:07:22.724Z,25.40
2023-04-05T12:10:00.863Z,25.46
2023-04-05T12:12:28.511Z,25.35
2023-04-05T12:15:02.663Z,25.48
2023-04-05T12:17:44.447Z,25.65
2023-04-05T12:20:15.100Z,26.00
2023-04-05T12:22:44.313Z,25.87
2023-04-05T12:25:12.801Z,26.51
2023-04-05T12:27:40.846Z,27.18
2023-04-05T12:30:15.595Z,25.84
2023-04-05T12:32:48.286Z,25.83
2023-04-05T12:35:20.859Z,25.82
2023-04-05T12:37:48.689Z,26.58
2023-04-05T12:40:22.736Z,26.67
2023-04-05T12:42:50.379Z,26.36
2023-04-05T12:45:18.735Z,26.84
2023-04-05T12:47:50.704Z,26.94
2023-04-05T12:50:25.951Z,27.48
2023-04-05T12:52:58.698Z,28.07
2023-04-05T12:55:26.214Z,27.35
2023-04-05T12:57:54.564Z,27.57
2023-04-05T13:00:26.053Z,28.40
2023-04-05T13:02:55.282Z,28.38
2023-04-05T13:05:26.317Z,26.70
2023-04-05T13:07:53.903Z,28.90
2023-04-05T13:10:23.008Z,26.67
2023-04-05T13:12:50.701Z,27.02
2023-04-05T13:15:19.186Z,26.63
2023-04-05T13:17:49.845Z,27.88
2023-04-05T13:20:18.528Z,28.05
2023-04-05T13:22:48.294Z,27.54
2023-04-05T13:25:16.092Z,27.06
2023-04-05T13:27:43.685Z,27.55
2023-04-05T13:30:12.086Z,27.29
2023-04-05T13:32:39.660Z,26.86
2023-04-05T13:35:07.905Z,26.95
2023-04-05T13:37:35.525Z,27.34
2023-04-05T13:40:04.924Z,27.15
2023-04-05T13:42:32.428Z,27.53
2023-04-05T13:44:59.915Z,27.66
2023-04-05T13:47:27.482Z,27.70
2023-04-05T13:49:54.979Z,27.48
2023-04-05T13:52:22.634Z,27.71
2023-04-05T13:55:03.030Z,27.52
2023-04-05T13:57:32.974Z,27.36
2023-04-05T14:00:00.769Z,28.30
2023-04-05T14:02:28.759Z,28.06
2023-04-05T14:04:56.519Z,28.21
2023-04-05T14:07:25.311Z,27.89
2023-04-05T14:09:52.797Z,28.09
2023-04-05T14:12:20.309Z,28.99
2023-04-05T14:14:49.197Z,28.52
2023-04-05T14:17:16.677Z,28.21
2023-04-05T14:19:44.191Z,28.14
2023-04-05T14:22:11.708Z,28.07
2023-04-05T14:24:39.194Z,28.20
2023-04-05T14:27:06.698Z,28.38
2023-04-05T14:29:34.238Z,29.01
2023-04-05T14:32:03.415Z,28.32
2023-04-05T14:34:31.575Z,28.61
2023-04-05T14:37:00.846Z,29.10
2023-04-05T14:39:28.331Z,28.83
2023-04-05T14:41:56.175Z,29.29
2023-04-05T14:44:24.358Z,29.33
2023-04-05T14:46:52.152Z,29.41
2023-04-05T14:49:21.486Z,29.76
2023-04-05T14:51:49.030Z,29.47
2023-04-05T14:54:16.900Z,29.81
2023-04-05T14:56:44.411Z,29.83
2023-04-05T14:59:11.980Z,29.81
2023-04-05T15:01:41.641Z,29.66
2023-04-05T15:04:09.503Z,29.90
2023-04-05T15:06:38.571Z,30.16
2023-04-05T15:09:06.226Z,30.10
2023-04-05T15:11:35.686Z,29.52
2023-04-05T15:14:03.302Z,29.38
2023-04-05T15:16:30.935Z,29.65
2023-04-05T15:18:59.040Z,29.72
2023-04-05T15:21:26.663Z,29.99
2023-04-05T15:23:55.533Z,29.58
2023-04-05T15:26:23.018Z,30.11
2023-04-05T15:28:50.508Z,30.45
2023-04-05T15:31:18.142Z,30.37
2023-04-05T15:33:46.190Z,30.27
2023-04-05T15:36:13.772Z,29.96
2023-04-05T15:38:41.490Z,30.33
2023-04-05T15:41:10.453Z,31.34
2023-04-05T15:43:38.982Z,30.34
2023-04-05T15:46:06.819Z,30.65
2023-04-05T15:48:34.364Z,31.29
2023-04-05T15:51:01.868Z,30.65
2023-04-05T15:53:29.642Z,30.60
2023-04-05T15:55:58.191Z,31.22
2023-04-05T15:58:27.137Z,30.25
2023-04-05T16:00:54.634Z,30.70
2023-04-05T16:03:22.265Z,30.34
2023-04-05T16:05:49.869Z,31.62
2023-04-05T16:08:17.349Z,31.29
2023-04-05T16:10:44.883Z,30.55
2023-04-05T16:13:12.550Z,30.64
2023-04-05T16:15:41.452Z,30.32
2023-04-05T16:18:10.450Z,30.47
2023-04-05T16:20:38.319Z,30.23
2023-04-05T16:23:06.817Z,30.59
2023-04-05T16:25:34.558Z,30.64
2023-04-05T16:28:02.137Z,31.13
2023-04-05T16:30:29.659Z,30.78
2023-04-05T16:32:58.716Z,31.24
2023-04-05T16:35:26.339Z,30.91
2023-04-05T16:37:53.843Z,32.08
2023-04-05T16:40:21.628Z,30.95
2023-04-05T16:42:49.109Z,30.74
2023-04-05T16:45:16.610Z,30.66
2023-04-05T16:47:44.481Z,30.49
2023-04-05T16:50:13.349Z,30.43
2023-04-05T16:52:40.830Z,30.83
2023-04-05T16:55:09.718Z,31.88
2023-04-05T16:57:37.252Z,31.41
2023-04-05T17:00:06.445Z,30.78
2023-04-05T17:02:34.061Z,30.76
2023-04-05T17:05:01.656Z,30.86
2023-04-05T17:07:30.678Z,30.95
2023-04-05T17:09:59.768Z,31.03
2023-04-05T17:12:27.344Z,31.31
2023-04-05T17:14:54.834Z,31.53
2023-04-05T17:17:22.357Z,31.54
2023-04-05T17:19:49.869Z,32.05
2023-04-05T17:22:17.407Z,32.02
2023-04-05T17:24:46.667Z,31.85
2023-04-05T17:27:14.171Z,31.82
2023-04-05T17:29:41.704Z,32.05
2023-04-05T17:32:09.212Z,31.85
2023-04-05T17:34:36.855Z,31.78
2023-04-05T17:37:04.401Z,32.26
2023-04-05T17:39:31.897Z,32.17
2023-04-05T17:42:00.692Z,32.60
2023-04-05T17:44:30.111Z,32.43
2023-04-05T17:47:08.550Z,32.59
2023-04-05T17:49:37.629Z,32.78
2023-04-05T17:52:06.112Z,32.61
2023-04-05T17:54:36.993Z,33.16
2023-04-05T17:57:06.421Z,33.43
2023-04-05T17:59:33.920Z,33.32
2023-04-05T18:02:01.550Z,33.63
2023-04-05T18:04:29.217Z,33.10
2023-04-05T18:06:56.873Z,33.16
2023-04-05T18:09:24.396Z,33.00
2023-04-05T18:11:51.895Z,33.07
2023-04-05T18:14:20.736Z,33.37
2023-04-05T18:16:48.351Z,33.54
2023-04-05T18:19:17.405Z,33.81
2023-04-05T18:21:45.252Z,34.51
2023-04-05T18:24:13.016Z,35.11
2023-04-05T18:26:41.359Z,35.38
2023-04-05T18:29:08.863Z,35.76
2023-04-05T18:31:37.869Z,35.97
2023-04-05T18:34:06.047Z,36.25
2023-04-05T18:36:33.673Z,36.51
2023-04-05T18:39:03.322Z,36.57
2023-04-05T18:41:30.836Z,36.41
2023-04-05T18:43:59.258Z,36.38
2023-04-05T18:46:27.307Z,37.05
2023-04-05T18:48:56.271Z,37.28
2023-04-05T18:51:25.974Z,37.60
2023-04-05T18:53:53.862Z,37.55
2023-04-05T18:56:21.422Z,37.04
2023-04-05T18:58:49.797Z,37.52
2023-04-05T19:01:18.847Z,37.00
2023-04-05T19:03:47.281Z,37.46
2023-04-05T19:06:16.591Z,37.10
2023-04-05T19:08:44.428Z,37.46
2023-04-05T19:11:13.915Z,37.81
2023-04-05T19:13:41.963Z,37.87
2023-04-05T19:16:09.493Z,38.11
2023-04-05T19:18:37.133Z,38.28
2023-04-05T19:21:05.089Z,38.71
2023-04-05T19:23:33.949Z,38.65
2023-04-05T19:26:01.513Z,38.64
2023-04-05T19:28:29.053Z,38.73
2023-04-05T19:30:57.497Z,38.54
2023-04-05T19:33:25.059Z,39.09
2023-04-05T19:35:52.766Z,39.26
2023-04-05T19:38:21.818Z,39.24
2023-04-05T19:40:50.923Z,39.04
2023-04-05T19:43:18.490Z,39.44
2023-04-05T19:45:46.166Z,39.47
2023-04-05T19:48:36.312Z,40.41
2023-04-05T19:51:05.487Z,40.24
2023-04-05T19:53:42.973Z,40.86
2023-04-05T19:56:17.120Z,41.16
2023-04-05T19:58:45.246Z,41.22
2023-04-05T20:01:20.760Z,41.38
2023-04-05T20:06:28.806Z,41.69
2023-04-05T20:32:31.476Z,42.93
2023-04-05T20:40:45.777Z,43.45
2023-04-05T20:43:24.647Z,43.51
2023-04-05T20:46:03.597Z,43.98
2023-04-05T20:48:35.345Z,44.16
2023-04-05T20:51:05.152Z,44.43
2023-04-05T20:53:33.236Z,44.14
2023-04-05T20:56:01.312Z,44.63
2023-04-05T20:58:29.592Z,44.75
2023-04-05T21:00:59.257Z,45.13
2023-04-05T21:03:27.195Z,45.04
2023-04-05T21:05:57.262Z,45.24
2023-04-05T21:08:25.674Z,45.48
2023-04-05T21:10:53.884Z,45.62
2023-04-05T21:13:21.716Z,45.72
2023-04-05T21:15:49.808Z,45.75
2023-04-05T21:18:18.126Z,46.23
2023-04-05T21:20:50.727Z,46.03
2023-04-05T21:23:21.297Z,46.58
2023-04-05T21:25:49.541Z,46.18
2023-04-05T21:28:17.700Z,46.22
2023-04-05T21:30:46.014Z,46.56
2023-04-05T21:33:14.568Z,46.16
2023-04-05T21:35:42.241Z,46.58
2023-04-05T21:38:10.019Z,46.63
2023-04-05T21:40:39.021Z,47.01
2023-04-05T21:43:06.849Z,46.78
2023-04-05T21:45:34.599Z,46.90
2023-04-05T21:48:02.256Z,46.79
2023-04-05T21:50:29.978Z,46.99
2023-04-05T21:52:57.703Z,47.27
2023-04-05T21:55:25.297Z,47.32
2023-04-05T21:57:54.222Z,47.74
2023-04-05T22:00:25.582Z,47.51
2023-04-05T22:02:53.424Z,47.64
2023-04-05T22:05:33.829Z,47.86
2023-04-05T22:08:05.665Z,48.08
2023-04-05T22:10:33.663Z,47.95
2023-04-05T22:13:02.661Z,48.32
2023-04-05T22:15:30.307Z,48.34
2023-04-05T22:17:57.948Z,48.44
2023-04-05T22:20:25.792Z,48.23
2023-04-05T22:22:53.346Z,48.39
2023-04-05T22:25:21.125Z,48.68
2023-04-05T22:27:48.756Z,48.55
2023-04-05T22:30:18.137Z,48.70
2023-04-05T22:32:45.777Z,48.56
2023-04-05T22:35:13.405Z,48.38
2023-04-05T22:37:41.149Z,48.66
2023-04-05T22:40:09.739Z,48.48
2023-04-05T22:42:38.294Z,48.20
2023-04-05T22:45:07.378Z,48.65
2023-04-05T22:47:37.211Z,48.97
2023-04-05T22:50:05.469Z,48.44
2023-04-05T22:52:33.259Z,48.22
2023-04-05T22:55:01.159Z,48.42
2023-04-05T22:57:29.142Z,48.41
2023-04-05T22:59:56.666Z,48.22
2023-04-05T23:02:24.623Z,48.78
2023-04-05T23:04:53.795Z,48.82
2023-04-05T23:07:21.332Z,49.03
2023-04-05T23:09:48.942Z,49.08
2023-04-05T23:12:16.550Z,48.88
2023-04-05T23:14:44.507Z,48.45
2023-04-05T23:17:12.094Z,48.83
2023-04-05T23:19:39.835Z,48.46
2023-04-05T23:22:08.780Z,48.78
2023-04-05T23:24:36.330Z,48.94
2023-04-05T23:27:03.996Z,48.85
2023-04-05T23:29:31.662Z,49.13
2023-04-05T23:31:59.213Z,49.27
2023-04-05T23:34:28.256Z,49.31
2023-04-05T23:36:55.879Z,48.91
2023-04-05T23:39:24.933Z,49.18
2023-04-05T23:41:52.593Z,49.04
2023-04-05T23:44:20.529Z,48.76
2023-04-05T23:46:48.103Z,48.92
2023-04-05T23:49:15.950Z,49.03
2023-04-05T23:51:43.901Z,48.92
2023-04-05T23:54:11.680Z,48.87
2023-04-05T23:56:41.084Z,48.87
2023-04-05T23:59:08.909Z,48.57
